Time;durP1;ratioP1;P1;durP2;ratioP2;P2;SDS_P1;SDS_P2;PMS_P1;PMS_P2;Temp;Humidity;BMP_temperature;BMP_pressure;BME280_temperature;BME280_humidity;BME280_pressure;Samples;Min_cycle;Max_cycle;Signal;HPM_P1;HPM_P2
2021/10/23 00:00:01;;;;;;;;;4.75;4.00;;;;;9.94;70.95;101507.78;4997377;28;46053;-79
2021/10/23 00:02:26;;;;;;;;;7.00;5.00;;;;;9.95;71.03;101503.34;4997530;28;45264;-79
2021/10/23 00:04:52;;;;;;;;;3.50;3.50;;;;;9.97;71.10;101504.16;4998020;28;45162;-79
2021/10/23 00:07:17;;;;;;;;;5.33;3.33;;;;;9.92;70.91;101491.06;4997380;28;45251;-79
2021/10/23 00:09:42;;;;;;;;;8.75;5.00;;;;;9.94;70.64;101494.50;4997343;28;45199;-79
2021/10/23 00:12:08;;;;;;;;;4.75;4.75;;;;;9.89;70.26;101484.97;4997400;28;45216;-79
2021/10/23 00:14:33;;;;;;;;;8.00;5.75;;;;;9.94;70.78;101497.16;4997433;28;45117;-79
2021/10/23 00:16:58;;;;;;;;;6.00;6.00;;;;;9.96;70.84;101508.63;4997256;28;45178;-80
2021/10/23 00:19:24;;;;;;;;;3.75;3.75;;;;;9.93;70.77;101498.09;4997382;28;45272;-80
2021/10/23 00:21:49;;;;;;;;;4.00;4.00;;;;;9.99;70.43;101504.94;4997077;28;45158;-79
2021/10/23 00:24:14;;;;;;;;;5.00;5.00;;;;;10.01;70.70;101503.13;4997323;28;45059;-79
2021/10/23 00:26:40;;;;;;;;;4.75;4.75;;;;;10.00;70.27;101498.72;4997130;28;45344;-79
2021/10/23 00:29:05;;;;;;;;;6.00;4.50;;;;;10.01;69.97;101505.78;4997380;28;45358;-79
2021/10/23 00:31:31;;;;;;;;;9.50;4.00;;;;;9.98;70.08;101501.44;4997410;28;45440;-79
2021/10/23 00:33:56;;;;;;;;;6.00;5.00;;;;;10.01;70.32;101519.06;4997065;28;45226;-79
2021/10/23 00:36:22;;;;;;;;;5.50;4.50;;;;;9.99;70.28;101504.94;4996826;28;45251;-79
2021/10/23 00:38:47;;;;;;;;;7.00;4.50;;;;;10.02;70.38;101513.69;4979046;28;47192;-79
2021/10/23 00:41:13;;;;;;;;;7.75;4.00;;;;;10.02;70.17;101511.03;4997355;28;45270;-79
2021/10/23 00:43:41;;;;;;;;;6.50;4.00;;;;;10.02;70.04;101512.84;4997075;28;45193;-79
2021/10/23 00:46:07;;;;;;;;;7.75;4.50;;;;;10.04;70.25;101505.66;4997581;28;45290;-79
2021/10/23 00:48:32;;;;;;;;;5.25;5.00;;;;;10.02;70.05;101502.19;4995765;28;47492;-79
2021/10/23 00:50:58;;;;;;;;;6.25;4.50;;;;;10.05;69.92;101501.19;4979389;28;45329;-79
2021/10/23 00:53:24;;;;;;;;;7.00;5.75;;;;;10.06;70.07;101502.94;4996597;28;45162;-79
2021/10/23 00:55:49;;;;;;;;;6.25;4.75;;;;;9.99;69.90;101495.22;4996766;28;45229;-79
2021/10/23 00:58:15;;;;;;;;;6.75;5.75;;;;;10.02;69.91;101499.53;4996993;28;45887;-79
2021/10/23 01:00:41;;;;;;;;;6.00;3.75;;;;;10.01;69.97;101503.13;4997152;28;45125;-79
2021/10/23 01:03:06;;;;;;;;;4.50;2.75;;;;;9.99;70.07;101504.94;4996904;28;45288;-79
2021/10/23 01:05:32;;;;;;;;;4.00;4.00;;;;;10.05;69.44;101510.06;4997056;28;45561;-79
2021/10/23 01:07:58;;;;;;;;;6.00;4.00;;;;;9.99;69.77;101494.31;4996677;28;45272;-79
2021/10/23 01:10:24;;;;;;;;;3.75;3.75;;;;;10.00;69.44;101502.25;4996759;28;45198;-79
2021/10/23 01:12:49;;;;;;;;;6.50;4.00;;;;;9.99;69.78;101486.34;4997043;28;45364;-79
2021/10/23 01:15:22;;;;;;;;;5.25;4.00;;;;;10.01;69.37;101481.88;4996618;28;45201;-79
2021/10/23 01:17:48;;;;;;;;;4.00;4.00;;;;;10.03;69.45;101498.59;4996441;28;46318;-79
2021/10/23 01:20:14;;;;;;;;;5.25;4.75;;;;;10.02;69.36;101497.75;4996738;28;45292;-79
2021/10/23 01:22:39;;;;;;;;;6.00;3.75;;;;;10.03;69.27;101490.63;4997013;28;45250;-79
2021/10/23 01:25:05;;;;;;;;;6.25;4.00;;;;;9.97;69.02;101478.44;4996680;28;45274;-79
2021/10/23 01:27:31;;;;;;;;;5.00;3.75;;;;;10.02;69.04;101491.56;4996380;28;45395;-79
2021/10/23 01:29:56;;;;;;;;;7.25;5.50;;;;;9.98;69.00;101484.63;4988495;28;45217;-79
2021/10/23 01:32:21;;;;;;;;;5.25;4.00;;;;;10.02;68.96;101483.59;4996921;28;45292;-79
2021/10/23 01:34:47;;;;;;;;;6.25;4.00;;;;;9.95;68.82;101472.34;4996968;28;45208;-79
2021/10/23 01:37:13;;;;;;;;;5.00;4.00;;;;;9.99;68.79;101479.28;4996209;28;45211;-79
2021/10/23 01:39:38;;;;;;;;;6.50;4.50;;;;;10.01;69.19;101473.91;4996987;28;45609;-79
2021/10/23 01:42:04;;;;;;;;;5.25;4.00;;;;;10.01;68.78;101476.56;4996711;28;45436;-79
2021/10/23 01:44:34;;;;;;;;;6.25;4.00;;;;;10.00;68.77;101467.72;4996606;28;45191;-80
2021/10/23 01:47:00;;;;;;;;;6.75;4.50;;;;;10.00;68.84;101473.03;4970386;28;46057;-79
2021/10/23 01:49:25;;;;;;;;;4.50;3.00;;;;;9.97;68.92;101469.63;4996050;28;45132;-79
2021/10/23 01:51:50;;;;;;;;;8.00;4.67;;;;;10.01;68.73;101476.56;4996763;28;45184;-80
2021/10/23 01:54:16;;;;;;;;;6.75;3.00;;;;;9.95;68.64;101464.38;4996299;28;45244;-79
2021/10/23 01:56:41;;;;;;;;;4.25;3.00;;;;;9.96;69.12;101467.88;4995803;28;46260;-80
2021/10/23 01:59:09;;;;;;;;;7.75;5.00;;;;;9.98;69.15;101463.38;4996343;28;45275;-79
2021/10/23 02:01:34;;;;;;;;;5.00;5.00;;;;;9.96;68.49;101455.47;4996462;28;45102;-79
2021/10/23 02:04:00;;;;;;;;;4.50;4.50;;;;;10.04;69.10;101462.28;4995887;28;45272;-79
2021/10/23 02:06:25;;;;;;;;;8.00;4.00;;;;;10.06;68.90;101463.06;4998446;28;46620;-79
2021/10/23 02:08:51;;;;;;;;;5.25;4.00;;;;;10.03;68.91;101461.41;4999324;28;45277;-79
2021/10/23 02:11:17;;;;;;;;;6.75;4.00;;;;;10.06;68.58;101447.13;4999756;28;45481;-79
2021/10/23 02:13:43;;;;;;;;;4.00;3.50;;;;;9.99;68.51;101444.72;4999421;28;45265;-79
2021/10/23 02:16:09;;;;;;;;;7.75;5.00;;;;;10.02;68.88;101454.38;4999152;28;45982;-79
2021/10/23 02:18:34;;;;;;;;;4.50;3.50;;;;;10.03;68.90;101461.41;4997290;28;45257;-79
2021/10/23 02:21:00;;;;;;;;;6.25;3.00;;;;;10.02;69.11;101457.03;4999751;28;45203;-79
2021/10/23 02:23:25;;;;;;;;;5.50;4.00;;;;;10.00;68.78;101451.78;4996955;28;45215;-79
2021/10/23 02:25:51;;;;;;;;;4.00;4.00;;;;;10.03;68.71;101453.44;4997456;28;46176;-79
2021/10/23 02:28:17;;;;;;;;;6.25;3.75;;;;;10.01;69.10;101448.19;4993583;28;45665;-79
2021/10/23 02:30:43;;;;;;;;;5.75;4.00;;;;;9.97;68.83;101440.41;4999759;28;45198;-79
2021/10/23 02:33:09;;;;;;;;;5.00;4.75;;;;;9.95;69.06;101450.22;4999332;28;45331;-79
2021/10/23 02:35:34;;;;;;;;;4.00;3.25;;;;;9.91;69.24;101444.16;4997739;28;46050;-80
2021/10/23 02:37:59;;;;;;;;;4.25;4.00;;;;;9.87;69.43;101450.50;4980844;28;45320;-80
2021/10/23 02:40:25;;;;;;;;;3.50;3.50;;;;;9.89;69.00;101448.66;4999058;28;45224;-79
2021/10/23 02:42:50;;;;;;;;;8.25;4.00;;;;;9.92;69.35;101456.53;4994253;28;45189;-79
2021/10/23 02:45:16;;;;;;;;;5.50;3.25;;;;;9.89;69.60;101447.78;4996803;28;45350;-79
2021/10/23 02:47:42;;;;;;;;;5.75;4.00;;;;;9.89;69.47;101447.78;4991368;28;45358;-80
2021/10/23 02:50:08;;;;;;;;;3.50;2.75;;;;;9.83;69.57;101440.91;4997965;28;45345;-79
2021/10/23 02:52:33;;;;;;;;;3.50;3.50;;;;;9.88;69.75;101448.72;4995933;28;45296;-80
2021/10/23 02:54:59;;;;;;;;;5.50;4.25;;;;;9.89;69.36;101447.78;4998380;28;45797;-79
2021/10/23 02:57:25;;;;;;;;;4.25;4.00;;;;;9.89;69.49;101447.78;4998056;28;45624;-79
2021/10/23 02:59:50;;;;;;;;;3.00;3.00;;;;;9.90;69.12;101445.06;4991577;28;45328;-79
2021/10/23 03:02:16;;;;;;;;;6.00;4.00;;;;;9.92;69.10;101453.88;4998302;28;45350;-80
2021/10/23 03:04:42;;;;;;;;;3.00;3.00;;;;;9.95;69.05;101456.41;4998894;28;46406;-79
2021/10/23 03:07:09;;;;;;;;;4.25;4.25;;;;;10.00;69.21;101458.88;4996606;28;45170;-79
2021/10/23 03:09:34;;;;;;;;;4.00;3.00;;;;;10.03;69.44;101458.75;4998075;28;45203;-79
2021/10/23 03:12:00;;;;;;;;;4.25;4.25;;;;;10.05;69.56;101462.22;4997512;28;45297;-79
2021/10/23 03:14:25;;;;;;;;;4.00;4.00;;;;;10.09;69.37;101462.97;4998342;28;45581;-79
2021/10/23 03:16:51;;;;;;;;;6.50;5.00;;;;;10.11;69.24;101469.09;4997874;28;45304;-80
2021/10/23 03:19:16;;;;;;;;;4.50;4.00;;;;;10.10;69.21;101459.38;4997687;28;45180;-79
2021/10/23 03:21:42;;;;;;;;;3.75;3.00;;;;;10.11;69.08;101461.97;4997558;28;45314;-79
2021/10/23 03:24:07;;;;;;;;;4.75;4.75;;;;;10.08;69.42;101462.09;4997129;28;46042;-79
2021/10/23 03:26:33;;;;;;;;;4.00;3.50;;;;;10.06;68.89;101463.06;4998045;28;45268;-80
2021/10/23 03:28:58;;;;;;;;;4.75;4.25;;;;;10.05;69.17;101456.03;4997455;28;45299;-79
2021/10/23 03:31:23;;;;;;;;;4.50;2.75;;;;;10.04;69.70;101464.94;4998387;28;45195;-80
2021/10/23 03:33:49;;;;;;;;;3.50;3.50;;;;;9.98;69.34;101458.94;4997804;28;45229;-79
2021/10/23 03:36:14;;;;;;;;;3.00;3.00;;;;;10.05;69.80;101469.31;4997785;28;45261;-79
2021/10/23 03:38:40;;;;;;;;;5.75;4.00;;;;;10.04;69.54;101459.63;4998263;28;45304;-79
2021/10/23 03:41:05;;;;;;;;;4.50;4.00;;;;;10.04;69.87;101457.81;4998365;28;45308;-79
2021/10/23 03:43:30;;;;;;;;;6.00;5.25;;;;;10.05;69.63;101464.00;4997579;28;46117;-79
2021/10/23 03:45:56;;;;;;;;;4.75;4.75;;;;;10.02;69.31;101457.88;4998231;28;45232;-79
2021/10/23 03:48:21;;;;;;;;;3.00;3.00;;;;;10.07;69.63;101463.00;4997869;28;45289;-79
2021/10/23 03:50:46;;;;;;;;;4.75;4.00;;;;;10.07;69.76;101456.84;4980586;28;45261;-79
2021/10/23 03:53:12;;;;;;;;;4.50;3.25;;;;;10.08;69.80;101455.94;4997800;28;46371;-79
2021/10/23 03:55:37;;;;;;;;;4.00;4.00;;;;;10.07;69.61;101454.19;4996533;28;45274;-79
2021/10/23 03:58:04;;;;;;;;;4.25;3.00;;;;;10.05;69.68;101451.59;4997034;28;45272;-79
2021/10/23 04:00:29;;;;;;;;;4.50;3.50;;;;;10.08;69.76;101448.81;4997489;28;45286;-79
2021/10/23 04:02:55;;;;;;;;;3.75;2.75;;;;;10.09;69.43;101447.91;4987659;28;47440;-79
2021/10/23 04:05:20;;;;;;;;;4.00;3.00;;;;;10.14;69.40;101445.91;5017449;28;45152;-79
2021/10/23 04:07:45;;;;;;;;;5.50;3.00;;;;;10.14;69.39;101451.22;5017475;28;45574;-79
2021/10/23 04:10:11;;;;;;;;;4.00;3.00;;;;;10.14;69.84;101456.53;5018044;28;45204;-79
2021/10/23 04:12:36;;;;;;;;;4.25;3.00;;;;;10.12;69.11;101452.22;5017432;28;46286;-79
2021/10/23 04:15:02;;;;;;;;;4.25;3.75;;;;;10.15;69.57;101458.28;5018032;28;45199;-79
2021/10/23 04:17:28;;;;;;;;;5.75;4.75;;;;;10.09;69.63;101452.31;5017373;28;45200;-79
2021/10/23 04:19:53;;;;;;;;;5.00;3.00;;;;;10.17;69.68;101455.56;5018047;28;45149;-79
2021/10/23 04:22:19;;;;;;;;;4.75;4.50;;;;;10.14;69.50;101445.06;5017636;28;45307;-80
2021/10/23 04:24:45;;;;;;;;;4.75;3.00;;;;;10.11;69.21;101440.72;5017733;28;45280;-79
2021/10/23 04:27:10;;;;;;;;;4.25;4.25;;;;;10.09;69.11;101441.69;5017567;28;45231;-80
2021/10/23 04:29:35;;;;;;;;;7.50;5.00;;;;;10.05;69.38;101443.63;5016247;28;45232;-79
2021/10/23 04:32:01;;;;;;;;;5.25;3.50;;;;;10.07;69.54;101449.72;5017540;28;45187;-79
2021/10/23 04:34:26;;;;;;;;;5.00;3.50;;;;;10.09;69.43;101449.66;5017718;28;45244;-79
2021/10/23 04:36:52;;;;;;;;;6.00;4.50;;;;;10.10;69.64;101454.06;5016733;28;45228;-79
2021/10/23 04:39:17;;;;;;;;;3.50;2.00;;;;;10.10;69.33;101456.72;5016682;28;45275;-80
2021/10/23 04:41:42;;;;;;;;;5.00;3.50;;;;;10.09;69.41;101452.31;5016227;28;45775;-80
2021/10/23 04:44:08;;;;;;;;;3.25;2.00;;;;;10.06;69.50;101452.44;5017315;28;45050;-79
2021/10/23 04:46:33;;;;;;;;;3.00;3.00;;;;;10.00;69.50;101457.09;5017207;28;45158;-80
2021/10/23 04:48:58;;;;;;;;;3.25;3.00;;;;;10.01;69.93;101463.25;5017435;28;45119;-79
2021/10/23 04:51:24;;;;;;;;;5.00;3.00;;;;;10.00;69.66;101464.19;5017085;28;46037;-79
2021/10/23 04:53:50;;;;;;;;;4.00;4.00;;;;;10.01;69.59;101465.91;5017085;28;45253;-79
2021/10/23 04:56:16;;;;;;;;;4.00;4.00;;;;;10.01;69.92;101466.78;5017129;28;45232;-79
2021/10/23 04:58:42;;;;;;;;;3.75;3.75;;;;;10.02;69.65;101467.66;5016765;28;45320;-79
2021/10/23 05:01:07;;;;;;;;;4.00;4.00;;;;;10.00;70.17;101464.19;5016531;28;46497;-79
2021/10/23 05:03:33;;;;;;;;;6.25;3.75;;;;;10.02;69.78;101470.31;5003592;28;45371;-79
2021/10/23 05:05:58;;;;;;;;;3.25;3.25;;;;;10.01;70.06;101468.56;4979502;28;45125;-79
2021/10/23 05:08:24;;;;;;;;;4.75;3.00;;;;;9.97;70.05;101467.81;4997063;28;45366;-79
2021/10/23 05:10:49;;;;;;;;;3.75;2.50;;;;;9.94;70.29;101464.44;4997292;28;45737;-79
2021/10/23 05:13:15;;;;;;;;;4.00;4.00;;;;;9.88;70.22;101467.31;4995646;28;45335;-79
2021/10/23 05:15:40;;;;;;;;;3.50;3.00;;;;;9.86;70.39;101472.66;4995651;28;45357;-80
2021/10/23 05:18:05;;;;;;;;;4.75;4.00;;;;;9.89;70.29;101475.22;4996953;28;45171;-79
2021/10/23 05:20:31;;;;;;;;;4.25;3.50;;;;;9.86;70.32;101477.97;4997176;28;46113;-79
2021/10/23 05:22:57;;;;;;;;;2.75;2.75;;;;;9.86;70.00;101480.63;4996165;28;45272;-80
2021/10/23 05:25:22;;;;;;;;;5.50;4.00;;;;;9.79;70.16;101469.41;4997192;28;45233;-79
2021/10/23 05:27:48;;;;;;;;;4.25;3.75;;;;;9.83;70.18;101470.13;4996557;28;45215;-79
2021/10/23 05:30:13;;;;;;;;;6.75;3.50;;;;;9.80;70.30;101467.59;4997267;28;46501;-79
2021/10/23 05:32:39;;;;;;;;;5.00;4.00;;;;;9.83;70.17;101476.31;4996800;28;45295;-79
2021/10/23 05:35:05;;;;;;;;;4.50;3.50;;;;;9.80;70.23;101462.28;4996881;28;45171;-79
2021/10/23 05:37:31;;;;;;;;;5.00;4.00;;;;;9.85;70.21;101471.81;4996708;28;45259;-79
2021/10/23 05:39:56;;;;;;;;;3.50;3.50;;;;;9.87;70.02;101471.75;4997549;28;45211;-79
2021/10/23 05:42:22;;;;;;;;;3.00;3.00;;;;;9.83;70.62;101459.50;5000489;28;45156;-80
2021/10/23 05:44:47;;;;;;;;;4.75;3.25;;;;;9.91;70.37;101467.22;5000601;28;45301;-79
2021/10/23 05:47:13;;;;;;;;;5.00;4.00;;;;;9.91;70.35;101470.72;5000229;28;45501;-79
2021/10/23 05:49:39;;;;;;;;;3.00;2.50;;;;;9.91;70.52;101477.81;5000398;28;45957;-79
2021/10/23 05:52:05;;;;;;;;;4.25;3.75;;;;;9.85;70.29;101461.19;5000033;28;45583;-80
2021/10/23 05:54:36;;;;;;;;;5.50;3.50;;;;;9.90;69.76;101462.81;5000549;28;45192;-79
2021/10/23 05:57:06;;;;;;;;;5.25;3.75;;;;;9.84;70.00;101466.56;4999836;28;45216;-79
2021/10/23 05:59:31;;;;;;;;;3.25;3.25;;;;;9.90;69.90;101474.28;4999754;28;46566;-79
2021/10/23 06:02:01;;;;;;;;;4.00;3.00;;;;;9.92;69.59;101479.53;4999035;28;45437;-80
2021/10/23 06:04:26;;;;;;;;;3.50;3.00;;;;;9.93;69.74;101478.63;5017932;28;45135;-79
2021/10/23 06:06:52;;;;;;;;;5.00;3.00;;;;;9.94;69.76;101488.34;5016932;28;45201;-79
2021/10/23 06:09:17;;;;;;;;;3.00;2.00;;;;;9.93;69.85;101474.19;5018951;28;45296;-79
2021/10/23 06:11:43;;;;;;;;;2.00;1.75;;;;;9.92;69.81;101472.47;5019063;28;45225;-79
2021/10/23 06:14:08;;;;;;;;;1.75;1.75;;;;;10.00;69.58;101491.63;5019280;28;45172;-79
2021/10/23 06:16:33;;;;;;;;;3.00;3.00;;;;;10.04;69.81;101486.19;5019249;28;45306;-79
2021/10/23 06:18:59;;;;;;;;;3.25;2.00;;;;;10.07;69.68;101488.72;5018970;28;45394;-79
2021/10/23 06:21:24;;;;;;;;;2.50;2.50;;;;;10.10;69.53;101492.13;5019240;28;45252;-79
2021/10/23 06:23:49;;;;;;;;;4.00;2.75;;;;;10.15;69.42;101494.63;5018747;28;45229;-79
2021/10/23 06:26:14;;;;;;;;;5.00;4.00;;;;;10.17;69.36;101498.06;5019242;28;45514;-79
2021/10/23 06:28:40;;;;;;;;;4.00;2.75;;;;;10.18;69.13;101498.00;5017661;28;46515;-79
2021/10/23 06:31:07;;;;;;;;;2.00;2.00;;;;;10.18;69.17;101500.69;4999404;28;45285;-79
2021/10/23 06:33:35;;;;;;;;;3.25;2.00;;;;;10.23;69.31;101499.63;5016747;28;45231;-80
2021/10/23 06:36:00;;;;;;;;;2.25;2.25;;;;;10.23;68.68;101496.97;5018198;28;45268;-81
2021/10/23 06:38:26;;;;;;;;;4.75;3.50;;;;;10.33;68.91;101507.19;5016930;28;45336;-80
2021/10/23 06:40:51;;;;;;;;;4.50;2.00;;;;;10.39;68.66;101507.91;5017932;28;45161;-80
2021/10/23 06:43:17;;;;;;;;;3.75;3.75;;;;;10.42;68.50;101503.34;5016990;28;45132;-79
2021/10/23 06:45:42;;;;;;;;;4.00;2.50;;;;;10.45;68.49;101507.69;5018375;28;45239;-79
2021/10/23 06:48:08;;;;;;;;;3.50;2.00;;;;;10.48;68.14;101513.72;5017826;28;45275;-79
2021/10/23 06:50:34;;;;;;;;;5.00;4.00;;;;;10.48;68.48;101510.22;5017633;28;45663;-80
2021/10/23 06:52:59;;;;;;;;;2.50;2.50;;;;;10.48;68.19;101505.75;5017103;28;45493;-79
2021/10/23 06:55:24;;;;;;;;;2.00;2.00;;;;;10.51;68.06;101510.09;5017569;28;45248;-80
2021/10/23 06:57:50;;;;;;;;;3.00;2.00;;;;;10.50;68.12;101509.22;5016354;28;47289;-80
2021/10/23 07:00:15;;;;;;;;;2.25;2.25;;;;;10.57;68.19;101524.94;5017424;28;45213;-80
2021/10/23 07:02:43;;;;;;;;;3.00;3.00;;;;;10.58;67.98;101524.00;5018004;28;45312;-80
2021/10/23 07:05:11;;;;;;;;;3.00;2.00;;;;;10.51;68.34;101518.06;5018136;28;45500;-80
2021/10/23 07:07:36;;;;;;;;;4.00;4.00;;;;;10.56;68.02;101520.53;5017531;28;45307;-80
2021/10/23 07:10:03;;;;;;;;;3.50;2.50;;;;;10.59;67.97;101531.94;5017683;28;45421;-80
2021/10/23 07:12:28;;;;;;;;;4.00;3.00;;;;;10.63;68.32;101535.31;5017564;28;45205;-80
2021/10/23 07:14:55;;;;;;;;;1.25;1.00;;;;;10.71;68.26;101541.19;5017819;28;45212;-80
2021/10/23 07:17:21;;;;;;;;;5.50;3.25;;;;;10.75;68.40;101547.28;5015078;28;45570;-80
2021/10/23 07:19:46;;;;;;;;;5.00;2.50;;;;;10.77;68.01;101550.72;5017434;28;45159;-81
2021/10/23 07:22:11;;;;;;;;;3.00;3.00;;;;;10.80;67.98;101550.59;5017602;28;45214;-80
2021/10/23 07:24:36;;;;;;;;;7.75;6.25;;;;;10.81;68.09;101557.66;5017186;28;45240;-80
2021/10/23 07:27:02;;;;;;;;;6.50;6.50;;;;;10.78;68.15;101558.66;5017288;28;45933;-80
2021/10/23 07:29:27;;;;;;;;;5.00;5.00;;;;;10.81;68.15;101563.84;5016638;28;45228;-80
2021/10/23 07:31:53;;;;;;;;;7.00;5.75;;;;;10.79;68.61;101565.72;5017122;28;45220;-81
2021/10/23 07:34:18;;;;;;;;;3.00;3.00;;;;;10.76;68.25;101557.84;5016945;28;45129;-80
2021/10/23 07:36:43;;;;;;;;;5.00;4.00;;;;;10.79;67.84;101568.38;5016853;28;46548;-81
2021/10/23 07:39:09;;;;;;;;;4.25;3.25;;;;;10.79;68.03;101572.81;5017215;28;45398;-81
2021/10/23 07:41:34;;;;;;;;;4.50;3.00;;;;;10.77;68.11;101569.34;5016722;28;45200;-80
2021/10/23 07:43:59;;;;;;;;;5.25;3.00;;;;;10.83;68.52;101583.28;5017203;28;45163;-80
2021/10/23 07:46:26;;;;;;;;;3.00;3.00;;;;;10.89;68.08;101584.84;5016883;28;46731;-80
2021/10/23 07:48:51;;;;;;;;;5.25;5.25;;;;;10.94;67.79;101581.97;5016133;28;45274;-80
2021/10/23 07:51:16;;;;;;;;;4.50;3.50;;;;;10.99;67.80;101582.66;5017332;28;45138;-80
2021/10/23 07:53:42;;;;;;;;;4.75;4.00;;;;;11.02;67.86;101594.03;5016945;28;45272;-80
2021/10/23 07:56:07;;;;;;;;;5.25;3.00;;;;;11.05;67.35;101588.59;5016961;28;45209;-80
2021/10/23 07:58:32;;;;;;;;;3.75;3.75;;;;;11.00;67.28;101582.59;5016979;28;45337;-79
2021/10/23 08:00:59;;;;;;;;;6.75;5.00;;;;;11.01;67.13;101588.78;5017285;28;45286;-79
2021/10/23 08:03:24;;;;;;;;;3.25;3.25;;;;;11.00;67.36;101595.03;5017178;28;45180;-79
2021/10/23 08:05:49;;;;;;;;;2.25;2.25;;;;;11.07;67.43;101601.84;5015762;28;46111;-75
2021/10/23 08:08:15;;;;;;;;;3.50;3.00;;;;;11.07;67.21;101593.84;4999263;28;45238;-80
2021/10/23 08:10:40;;;;;;;;;6.00;2.00;;;;;11.10;67.30;101590.19;5017041;28;45272;-81
2021/10/23 08:13:06;;;;;;;;;4.50;2.00;;;;;11.14;67.06;101595.31;5017228;28;45249;-81
2021/10/23 08:15:32;;;;;;;;;6.75;3.00;;;;;11.23;67.21;101600.28;5016746;28;45987;-80
2021/10/23 08:17:59;;;;;;;;;4.50;2.50;;;;;11.27;66.76;101593.03;5016839;28;45593;-81
2021/10/23 08:20:25;;;;;;;;;3.75;3.50;;;;;11.34;66.83;101599.84;5016963;28;45273;-80
2021/10/23 08:22:51;;;;;;;;;2.00;2.00;;;;;11.39;66.41;101605.84;4999134;28;45217;-80
2021/10/23 08:25:17;;;;;;;;;4.00;2.00;;;;;11.44;66.28;101608.28;5016759;28;46127;-80
2021/10/23 08:27:43;;;;;;;;;4.50;3.00;;;;;11.45;66.05;101596.72;5016887;28;45265;-79
2021/10/23 08:30:11;;;;;;;;;3.50;3.00;;;;;11.51;66.23;101608.91;5016838;28;45374;-80
2021/10/23 08:32:38;;;;;;;;;4.50;2.25;;;;;11.54;66.31;101604.34;5016474;28;45213;-80
2021/10/23 08:35:04;;;;;;;;;3.75;3.00;;;;;11.61;66.17;101604.06;5016162;28;46424;-81
2021/10/23 08:37:30;;;;;;;;;3.75;1.50;;;;;11.65;65.97;101600.34;5015016;28;45226;-80
2021/10/23 08:39:55;;;;;;;;;5.50;2.25;;;;;11.69;66.04;101605.47;5016200;28;45302;-80
2021/10/23 08:42:20;;;;;;;;;3.00;2.00;;;;;11.75;65.76;101601.66;5016789;28;45245;-80
2021/10/23 08:44:46;;;;;;;;;5.00;2.00;;;;;11.85;65.74;101600.31;5014750;28;47681;-79
2021/10/23 08:47:13;;;;;;;;;3.75;3.00;;;;;11.93;66.06;101605.31;5016069;28;45212;-79
2021/10/23 08:49:39;;;;;;;;;7.50;2.00;;;;;11.99;65.56;101597.09;5016320;28;45288;-79
2021/10/23 08:52:05;;;;;;;;;3.00;2.75;;;;;12.08;65.42;101604.69;5016340;28;45201;-79
2021/10/23 08:54:32;;;;;;;;;3.00;3.00;;;;;12.19;65.19;101604.19;5016306;28;45396;-79
2021/10/23 08:57:01;;;;;;;;;4.00;3.00;;;;;12.36;65.29;101615.91;5016442;28;45462;-80
2021/10/23 08:59:27;;;;;;;;;4.50;2.00;;;;;12.41;64.62;101598.75;5016076;28;45246;-80
2021/10/23 09:01:57;;;;;;;;;2.75;2.75;;;;;12.54;64.21;101608.81;5016196;28;45353;-80
2021/10/23 09:04:25;;;;;;;;;3.00;3.00;;;;;12.63;64.54;101611.06;5015851;28;45517;-80
2021/10/23 09:06:51;;;;;;;;;3.75;2.75;;;;;12.76;64.42;101601.53;5016035;28;45532;-86
2021/10/23 09:09:18;;;;;;;;;5.75;3.00;;;;;12.89;64.25;101604.47;5016080;28;45275;-87
2021/10/23 09:11:46;;;;;;;;;3.00;2.25;;;;;13.02;63.46;101604.75;5016197;28;45347;-87
2021/10/23 09:14:31;;;;;;;;;4.50;2.50;;;;;13.13;63.22;101596.22;5015635;28;46337;-87
2021/10/23 09:17:01;;;;;;;;;3.25;2.00;;;;;13.30;63.58;101593.56;5016078;28;45252;-86
2021/10/23 09:19:45;;;;;;;;;3.00;2.25;;;;;13.47;62.95;101594.56;5015754;28;45291;-88
2021/10/23 09:22:33;;;;;;;;;4.75;2.00;;;;;13.62;62.43;101598.25;5015836;28;45291;-86
2021/10/23 09:25:17;;;;;;;;;4.00;3.00;;;;;13.72;61.65;101606.66;5015776;28;46140;-88
2021/10/23 09:28:13;;;;;;;;;3.00;3.00;;;;;13.72;61.35;101607.50;5015658;28;45938;-87
2021/10/23 09:30:45;;;;;;;;;4.25;3.00;;;;;13.77;61.57;101607.28;5014335;28;45240;-86
2021/10/23 09:33:14;;;;;;;;;3.50;3.00;;;;;13.85;61.77;101597.03;5015702;28;45315;-87
2021/10/23 09:35:42;;;;;;;;;4.00;3.75;;;;;13.98;61.62;101598.13;5015128;28;45965;-87
2021/10/23 09:38:09;;;;;;;;;6.50;3.00;;;;;14.14;61.06;101598.19;5015553;28;45279;-87
2021/10/23 09:40:34;;;;;;;;;6.00;5.00;;;;;14.30;60.78;101600.88;4996290;28;45250;-87
2021/10/23 09:43:18;;;;;;;;;3.00;3.00;;;;;14.36;60.56;101596.16;5016188;28;45192;-88
2021/10/23 09:45:55;;;;;;;;;3.00;3.00;;;;;14.63;59.87;101605.34;5015607;28;45260;-88
2021/10/23 09:48:27;;;;;;;;;1.75;1.75;;;;;14.88;59.46;101598.66;5015511;28;45618;-88
2021/10/23 09:51:09;;;;;;;;;2.00;1.50;;;;;15.15;58.63;101603.38;5015748;28;45162;-87
2021/10/23 09:53:35;;;;;;;;;2.50;2.50;;;;;15.38;57.97;101603.81;5015639;28;45385;-88
2021/10/23 09:56:00;;;;;;;;;2.75;1.75;;;;;15.49;57.71;101599.56;5015641;28;45474;-85
2021/10/23 09:58:26;;;;;;;;;3.75;2.00;;;;;15.63;57.23;101604.09;5015037;28;45600;-86
2021/10/23 10:00:56;;;;;;;;;3.00;2.25;;;;;15.71;57.20;101599.13;5015319;28;45184;-86
2021/10/23 10:03:23;;;;;;;;;2.75;1.75;;;;;15.73;57.00;101607.06;5015538;28;45137;-86
2021/10/23 10:05:53;;;;;;;;;3.75;1.75;;;;;15.75;56.57;101597.13;5015454;28;46095;-86
2021/10/23 10:08:19;;;;;;;;;4.25;3.75;;;;;15.86;56.79;101604.53;5014851;28;45219;-86
2021/10/23 10:10:46;;;;;;;;;2.50;2.50;;;;;16.13;56.52;101603.81;5015476;28;45235;-85
2021/10/23 10:13:17;;;;;;;;;3.75;2.50;;;;;16.55;56.02;101600.25;5015163;28;45240;-84
2021/10/23 10:15:49;;;;;;;;;3.00;2.00;;;;;16.99;54.83;101595.69;5015127;28;45207;-87
2021/10/23 10:18:16;;;;;;;;;5.00;2.00;;;;;17.48;54.30;101596.03;5014717;28;45287;-89
2021/10/23 10:20:47;;;;;;;;;2.50;2.50;;;;;17.93;53.32;101596.56;5015118;28;45260;-86
2021/10/23 10:23:42;;;;;;;;;3.00;2.00;;;;;18.44;52.80;101601.03;5015099;28;45303;-84
2021/10/23 10:26:14;;;;;;;;;3.75;2.50;;;;;18.68;51.24;101598.38;5001247;28;45295;-82
2021/10/23 10:29:18;;;;;;;;;4.00;2.00;;;;;18.78;52.00;101601.25;5017645;28;45831;-81
2021/10/23 10:34:46;;;;;;;;;3.00;2.00;;;;;19.05;50.92;101594.84;5018353;28;45555;-83
2021/10/23 10:40:29;;;;;;;;;3.25;2.75;;;;;19.13;50.46;101603.22;5017967;28;45517;-83
2021/10/23 10:43:09;;;;;;;;;2.75;1.00;;;;;19.17;50.24;101596.63;5018074;28;45235;-85
2021/10/23 10:45:46;;;;;;;;;3.00;3.00;;;;;19.26;49.47;101601.31;5018702;28;45232;-87
2021/10/23 10:51:04;;;;;;;;;2.00;2.00;;;;;19.45;48.88;101597.22;5017928;28;45479;-87
2021/10/23 10:53:40;;;;;;;;;3.00;3.00;;;;;19.57;49.40;101593.59;5016240;28;45189;-87
2021/10/23 10:56:06;;;;;;;;;2.00;2.00;;;;;19.76;48.92;101590.31;5033372;28;45271;-90
2021/10/23 10:58:47;;;;;;;;;6.25;2.75;;;;;19.94;48.70;101582.66;5018413;28;46486;-89
2021/10/23 11:01:26;;;;;;;;;6.50;3.00;;;;;20.04;48.04;101577.38;5019903;28;45359;-84
2021/10/23 11:03:52;;;;;;;;;7.50;4.00;;;;;20.45;47.40;101578.59;5017887;28;45196;-82
2021/10/23 11:06:35;;;;;;;;;4.33;4.00;;;;;20.98;47.33;101577.06;5018127;28;45200;-82
2021/10/23 11:09:15;;;;;;;;;4.00;3.00;;;;;21.65;46.57;101566.94;5016123;28;48864;-82
2021/10/23 11:11:43;;;;;;;;;8.75;4.00;;;;;22.23;45.51;101569.06;4999845;28;45448;-83
2021/10/23 11:16:52;;;;;;;;;3.00;3.00;;;;;22.95;44.07;101569.00;5017588;28;45261;-83
2021/10/23 11:19:30;;;;;;;;;2.75;2.00;;;;;23.02;43.54;101564.72;4999314;28;47468;-82
2021/10/23 11:21:56;;;;;;;;;3.25;3.25;;;;;22.73;41.88;101566.41;5017854;28;45648;-82
2021/10/23 11:24:22;;;;;;;;;3.25;3.25;;;;;22.11;42.92;101578.28;5017721;28;45263;-82
2021/10/23 11:26:52;;;;;;;;;3.00;3.00;;;;;21.44;43.70;101562.34;5017714;28;45053;-82
2021/10/23 11:29:27;;;;;;;;;1.00;1.00;;;;;20.81;44.41;101568.50;5017922;28;45181;-84
2021/10/23 11:31:58;;;;;;;;;1.25;1.00;;;;;20.11;44.88;101575.03;5017901;28;45387;-86
2021/10/23 11:34:28;;;;;;;;;2.00;2.00;;;;;19.39;46.02;101563.47;5018244;28;45197;-86
2021/10/23 11:37:11;;;;;;;;;2.50;2.00;;;;;18.84;47.10;101576.59;5017426;28;45263;-85